Dades meteomassalio
Diari Summary for Abril 4, 2017 Units:  English    Metric   Both
« Previous Day
Next Day »
Diari Semanal Mensual Anual Personalitzat
  Maxima: Minima: Mijana:
Temperatura: TemperatureC °F 4.7 °F 12.6 °F
Rosada: DewpointC °F 2.3 °F 5.7 °F
Humitat: Humidity % 33 % 65 %
Velocitat del vent: WindSpeedKMH mph 0.0 mph 11.8 mph
Racha vent: WindSpeedGustKMH mph - -
Vent:- - WNW
Pressio: PressurehPa in 1020.5 in -
Pluja: 0.0 in    
Historical Graphs
 
 
Tabular Data for Abril 4, 2017
Time Temperature Dew Point Pressure Wind Wind Speed Wind Gust Humidity Rainfall Rate (Hourly) solar Conditions
TemperatureC °F DewpointC °F PressurehPa in Calm     Humidity % HourlyPrecipMM in SolarRadiationWatts/m^2 W/m2 Conditions
00:01 7.8 °F 3.6 °F 1023.6 in Calm     75 % 0.0 in 0.0 W/m2 CLR
00:06 7.7 °F 3.6 °F 1023.9 in Calm     75 % 0.0 in 0.0 W/m2 CLR
00:11 7.7 °F 3.5 °F 1023.6 in Calm     75 % 0.0 in 0.0 W/m2 CLR
00:16 7.6 °F 3.4 °F 1023.6 in Calm     75 % 0.0 in 0.0 W/m2 CLR
00:21 7.5 °F 3.6 °F 1023.9 in Calm     76 % 0.0 in 0.0 W/m2 CLR
00:26 7.4 °F 3.4 °F 1023.9 in Calm     76 % 0.0 in 0.0 W/m2 CLR
00:31 7.3 °F 3.4 °F 1023.9 in Calm     76 % 0.0 in 0.0 W/m2 CLR
00:36 7.2 °F 3.4 °F 1023.9 in Calm     77 % 0.0 in 0.0 W/m2 CLR
00:41 7.1 °F 3.5 °F 1023.9 in Calm     78 % 0.0 in 0.0 W/m2 CLR
00:46 6.9 °F 3.3 °F 1023.9 in Calm     78 % 0.0 in 0.0 W/m2 CLR
00:51 6.8 °F 3.3 °F 1023.9 in Calm     78 % 0.0 in 0.0 W/m2 CLR
00:56 6.8 °F 3.2 °F 1023.9 in Calm     78 % 0.0 in 0.0 W/m2 CLR
01:01 6.8 °F 3.2 °F 1023.9 in Calm     78 % 0.0 in 0.0 W/m2 CLR
01:06 6.8 °F 3.4 °F 1023.9 in Calm     79 % 0.0 in 0.0 W/m2 CLR
01:11 6.6 °F 3.2 °F 1023.9 in Calm     79 % 0.0 in 0.0 W/m2 CLR
01:16 6.4 °F 3.2 °F 1023.9 in Calm     80 % 0.0 in 0.0 W/m2 CLR
01:21 6.3 °F 3.1 °F 1023.9 in Calm     80 % 0.0 in 0.0 W/m2 CLR
01:26 6.3 °F 3.1 °F 1023.9 in Calm     80 % 0.0 in 0.0 W/m2 CLR
01:31 6.3 °F 3.1 °F 1023.9 in Calm     80 % 0.0 in 0.0 W/m2 CLR
01:36 6.3 °F 3.1 °F 1023.6 in Calm     80 % 0.0 in 0.0 W/m2 CLR
01:41 6.2 °F 2.9 °F 1023.9 in Calm     80 % 0.0 in 0.0 W/m2 CLR
01:46 6.1 °F 2.9 °F 1023.9 in Calm     80 % 0.0 in 0.0 W/m2 CLR
01:51 6.1 °F 3.1 °F 1023.6 in Calm     81 % 0.0 in 0.0 W/m2 CLR
01:56 5.9 °F 2.9 °F 1023.6 in Calm     81 % 0.0 in 0.0 W/m2 CLR
02:01 5.9 °F 2.9 °F 1023.6 in Calm     81 % 0.0 in 0.0 W/m2 CLR
02:06 5.8 °F 2.8 °F 1023.6 in Calm     81 % 0.0 in 0.0 W/m2 CLR
02:11 5.9 °F 2.9 °F 1023.6 in Calm     81 % 0.0 in 0.0 W/m2 CLR
02:16 5.9 °F 2.9 °F 1023.6 in Calm     81 % 0.0 in 0.0 W/m2 CLR
02:21 5.9 °F 2.9 °F 1023.6 in Calm     81 % 0.0 in 0.0 W/m2 CLR
02:26 5.8 °F 2.8 °F 1023.6 in Calm     81 % 0.0 in 0.0 W/m2 CLR
02:31 5.9 °F 2.9 °F 1023.6 in Calm     81 % 0.0 in 0.0 W/m2 CLR
02:36 5.9 °F 2.9 °F 1023.6 in Calm     81 % 0.0 in 0.0 W/m2 CLR
02:41 5.9 °F 2.9 °F 1023.6 in Calm     81 % 0.0 in 0.0 W/m2 CLR
02:46 5.8 °F 2.8 °F 1023.6 in Calm     81 % 0.0 in 0.0 W/m2 CLR
02:51 5.8 °F 2.8 °F 1023.6 in Calm     81 % 0.0 in 0.0 W/m2 CLR
02:56 5.9 °F 2.9 °F 1023.6 in Calm     81 % 0.0 in 0.0 W/m2 CLR
03:01 5.9 °F 2.9 °F 1023.2 in Calm     81 % 0.0 in 0.0 W/m2 CLR
03:06 5.9 °F 2.9 °F 1023.2 in Calm     81 % 0.0 in 0.0 W/m2 CLR
03:11 6.1 °F 3.1 °F 1023.2 in Calm     81 % 0.0 in 0.0 W/m2 CLR
03:16 6.1 °F 3.1 °F 1023.2 in Calm     81 % 0.0 in 0.0 W/m2 CLR
03:21 6.0 °F 3.0 °F 1023.2 in Calm     81 % 0.0 in 0.0 W/m2 CLR
03:26 6.0 °F 3.0 °F 1023.2 in Calm     81 % 0.0 in 0.0 W/m2 CLR
03:31 6.2 °F 3.2 °F 1023.2 in Calm     81 % 0.0 in 0.0 W/m2 CLR
03:36 6.3 °F 3.1 °F 1023.2 in Calm     80 % 0.0 in 0.0 W/m2 CLR
03:41 6.2 °F 2.9 °F 1023.2 in Calm     80 % 0.0 in 0.0 W/m2 CLR
03:46 6.1 °F 2.9 °F 1023.2 in Calm     80 % 0.0 in 0.0 W/m2 CLR
03:51 5.9 °F 2.8 °F 1023.2 in Calm     80 % 0.0 in 0.0 W/m2 CLR
03:56 5.7 °F 2.7 °F 1023.2 in Calm     81 % 0.0 in 0.0 W/m2 CLR
04:02 5.6 °F 2.8 °F 1023.2 in Calm     82 % 0.0 in 0.0 W/m2 CLR
04:06 5.5 °F 2.7 °F 1023.6 in Calm     82 % 0.0 in 0.0 W/m2 CLR
04:12 5.4 °F 2.7 °F 1023.6 in Calm     83 % 0.0 in 0.0 W/m2 CLR
04:17 5.3 °F 2.7 °F 1023.6 in Calm     83 % 0.0 in 0.0 W/m2 CLR
04:22 5.2 °F 2.6 °F 1023.6 in Calm     83 % 0.0 in 0.0 W/m2 CLR
04:27 5.0 °F 2.3 °F 1023.6 in Calm     83 % 0.0 in 0.0 W/m2 CLR
04:32 5.0 °F 2.7 °F 1023.6 in Calm     85 % 0.0 in 0.0 W/m2 CLR
04:37 5.1 °F 2.6 °F 1023.6 in Calm     84 % 0.0 in 0.0 W/m2 CLR
04:42 5.1 °F 2.7 °F 1023.6 in Calm     85 % 0.0 in 0.0 W/m2 CLR
04:47 5.0 °F 2.5 °F 1023.6 in Calm     84 % 0.0 in 0.0 W/m2 CLR
04:57 4.7 °F 2.4 °F 1023.6 in Calm     85 % 0.0 in 0.0 W/m2 CLR
05:02 4.7 °F 2.5 °F 1023.6 in Calm     86 % 0.0 in 0.0 W/m2 CLR
05:07 4.8 °F 2.7 °F 1023.6 in Calm     86 % 0.0 in 0.0 W/m2 CLR
05:12 5.1 °F 2.9 °F 1023.9 in Calm     86 % 0.0 in 0.0 W/m2 CLR
05:17 5.5 °F 3.3 °F 1023.6 in Calm     86 % 0.0 in 0.0 W/m2 CLR
05:22 5.7 °F 3.4 °F 1023.6 in Calm     85 % 0.0 in 0.0 W/m2 CLR
05:27 6.1 °F 3.8 °F 1023.6 in Calm     85 % 0.0 in 0.0 W/m2 CLR
05:32 7.1 °F 4.7 °F 1023.6 in West 1.9 mph 1.9 mph 85 % 0.0 in 0.0 W/m2 CLR
05:37 8.1 °F 5.2 °F 1023.9 in West 3.7 mph 3.7 mph 82 % 0.0 in 0.0 W/m2 CLR
05:42 8.3 °F 4.6 °F 1023.9 in WSW 5.6 mph 5.6 mph 77 % 0.0 in 0.0 W/m2 CLR
05:47 7.7 °F 3.8 °F 1023.6 in WSW 5.6 mph 5.6 mph 76 % 0.0 in 0.0 W/m2 CLR
05:52 7.6 °F 4.2 °F 1023.6 in WSW 5.6 mph 5.6 mph 79 % 0.0 in 0.0 W/m2 CLR
05:57 7.6 °F 4.2 °F 1023.9 in WSW 3.7 mph 3.7 mph 79 % 0.0 in 0.0 W/m2 CLR
06:02 7.6 °F 4.2 °F 1023.9 in Calm     79 % 0.0 in 0.0 W/m2 CLR
06:07 7.6 °F 4.2 °F 1023.9 in Calm     79 % 0.0 in 0.0 W/m2 CLR
06:12 7.3 °F 3.7 °F 1023.9 in Calm     78 % 0.0 in 0.0 W/m2 CLR
06:17 6.8 °F 3.4 °F 1023.9 in Calm     79 % 0.0 in 0.0 W/m2 CLR
06:22 6.6 °F 3.6 °F 1023.9 in Calm     81 % 0.0 in 0.0 W/m2 CLR
06:27 6.5 °F 3.5 °F 1024.3 in Calm     81 % 0.0 in 0.0 W/m2 CLR
06:32 6.4 °F 3.6 °F 1024.3 in Calm     82 % 0.0 in 0.0 W/m2 CLR
06:37 6.4 °F 3.6 °F 1024.3 in Calm     82 % 0.0 in 0.0 W/m2 CLR
06:42 6.4 °F 3.7 °F 1024.3 in SW 3.2 mph 3.2 mph 83 % 0.0 in 0.0 W/m2 CLR
06:47 6.6 °F 4.1 °F 1024.3 in Calm     84 % 0.0 in 0.0 W/m2 CLR
06:52 6.7 °F 4.1 °F 1024.3 in Calm     83 % 0.0 in 0.0 W/m2 CLR
06:57 6.7 °F 3.9 °F 1024.3 in Calm     82 % 0.0 in 0.0 W/m2 CLR
07:02 6.7 °F 3.6 °F 1024.3 in Calm     81 % 0.0 in 0.0 W/m2 CLR
07:07 6.5 °F 3.7 °F 1024.3 in Calm     82 % 0.0 in 0.0 W/m2 CLR
07:12 6.4 °F 3.6 °F 1024.6 in Calm     82 % 0.0 in 0.0 W/m2 CLR
07:17 6.3 °F 3.7 °F 1024.6 in Calm     83 % 0.0 in 0.0 W/m2 CLR
07:22 6.3 °F 3.6 °F 1024.6 in Calm     83 % 0.0 in 0.0 W/m2 CLR
07:27 6.1 °F 3.4 °F 1024.6 in Calm     83 % 0.0 in 0.0 W/m2 OVC
07:28 6.1 °F 3.4 °F 1024.6 in Calm     83 % 0.0 in 0.0 W/m2 OVC
07:33 5.9 °F 3.2 °F 1024.6 in Calm     83 % 0.0 in 0.0 W/m2 OVC
07:38 5.8 °F 3.3 °F 1024.6 in Calm     84 % 0.0 in 5.0 W/m2 OVC
07:43 5.6 °F 3.3 °F 1024.6 in Calm     85 % 0.0 in 9.0 W/m2 BKN
07:48 5.6 °F 3.3 °F 1024.6 in Calm     85 % 0.0 in 12.0 W/m2 BKN
07:53 5.6 °F 3.4 °F 1024.6 in Calm     86 % 0.0 in 16.0 W/m2 BKN
07:58 5.7 °F 3.5 °F 1024.9 in Calm     86 % 0.0 in 21.0 W/m2 BKN
08:03 5.7 °F 3.6 °F 1024.9 in Calm     86 % 0.0 in 26.0 W/m2 BKN
08:08 5.7 °F 3.6 °F 1024.9 in Calm     86 % 0.0 in 33.0 W/m2 BKN
08:13 5.8 °F 3.4 °F 1024.9 in Calm     85 % 0.0 in 44.0 W/m2 BKN
08:18 5.9 °F 3.7 °F 1024.9 in Calm     86 % 0.0 in 54.0 W/m2 SCT
08:23 6.2 °F 4.0 °F 1024.9 in Calm     86 % 0.0 in 51.0 W/m2 SCT
08:28 6.4 °F 4.3 °F 1024.9 in Calm     86 % 0.0 in 70.0 W/m2 FEW
08:33 6.7 °F 4.4 °F 1024.9 in Calm     85 % 0.0 in 79.0 W/m2 FEW
08:38 7.0 °F 4.7 °F 1024.9 in Calm     85 % 0.0 in 58.0 W/m2 FEW
08:43 7.4 °F 4.8 °F 1024.9 in Calm     84 % 0.0 in 58.0 W/m2 FEW
08:48 7.7 °F 4.9 °F 1024.9 in Calm     83 % 0.0 in 42.0 W/m2 SCT
08:53 8.0 °F 5.3 °F 1024.9 in Calm     83 % 0.0 in 54.0 W/m2 SCT
08:58 8.4 °F 5.6 °F 1024.6 in Calm     82 % 0.0 in 130.0 W/m2 FEW
09:03 9.0 °F 5.7 °F 1024.6 in Calm     80 % 0.0 in 134.0 W/m2 CLR
09:08 9.3 °F 5.9 °F 1024.6 in Calm     79 % 0.0 in 188.0 W/m2 CLR
09:13 9.8 °F 6.2 °F 1024.6 in Calm     78 % 0.0 in 204.0 W/m2 CLR
09:18 10.3 °F 6.4 °F 1024.6 in SW 6.4 mph 6.4 mph 77 % 0.0 in 253.0 W/m2 CLR
09:23 10.9 °F 6.6 °F 1024.6 in SW 7.4 mph 7.4 mph 75 % 0.0 in 267.0 W/m2 CLR
09:28 11.4 °F 6.8 °F 1024.6 in WNW 14.8 mph 14.8 mph 73 % 0.0 in 288.0 W/m2 CLR
09:33 12.1 °F 7.0 °F 1024.6 in WNW 20.4 mph 20.4 mph 71 % 0.0 in 306.0 W/m2 CLR
09:38 12.6 °F 7.0 °F 1024.6 in West 13.0 mph 13.0 mph 69 % 0.0 in 323.0 W/m2 CLR
09:43 12.8 °F 7.0 °F 1024.6 in West 24.1 mph 24.1 mph 68 % 0.0 in 360.0 W/m2 CLR
09:48 12.8 °F 7.0 °F 1024.6 in West 18.5 mph 18.5 mph 68 % 0.0 in 336.0 W/m2 CLR
09:53 12.9 °F 6.9 °F 1024.6 in West 25.9 mph 25.9 mph 67 % 0.0 in 378.0 W/m2 CLR
10:03 13.1 °F 7.3 °F 1024.6 in WNW 14.5 mph 14.5 mph 68 % 0.0 in 418.0 W/m2 CLR
10:08 13.3 °F 7.3 °F 1024.6 in West 27.8 mph 27.8 mph 67 % 0.0 in 424.0 W/m2 CLR
10:13 13.4 °F 7.6 °F 1024.6 in WNW 24.1 mph 24.1 mph 68 % 0.0 in 438.0 W/m2 CLR
10:18 13.5 °F 7.5 °F 1024.3 in WNW 27.8 mph 27.8 mph 67 % 0.0 in 292.0 W/m2 CLR
10:23 13.6 °F 8.0 °F 1024.6 in WNW 25.9 mph 25.9 mph 69 % 0.0 in 599.0 W/m2 CLR
10:28 13.7 °F 7.9 °F 1024.3 in WNW 18.5 mph 18.5 mph 68 % 0.0 in 243.0 W/m2 CLR
10:33 13.6 °F 7.6 °F 1024.6 in West 25.9 mph 25.9 mph 67 % 0.0 in 204.0 W/m2 CLR
10:38 13.6 °F 7.8 °F 1024.6 in West 18.5 mph 18.5 mph 68 % 0.0 in 225.0 W/m2 CLR
10:43 13.9 °F 8.1 °F 1024.6 in WNW 22.5 mph 22.5 mph 68 % 0.0 in 200.0 W/m2 CLR
10:48 13.9 °F 7.9 °F 1024.6 in WNW 20.4 mph 20.4 mph 67 % 0.0 in 200.0 W/m2 CLR
10:53 13.7 °F 7.9 °F 1024.9 in NW 25.9 mph 25.9 mph 68 % 0.0 in 195.0 W/m2 CLR
10:58 13.4 °F 7.7 °F 1024.6 in NW 24.1 mph 24.1 mph 68 % 0.0 in 156.0 W/m2 CLR
11:03 13.3 °F 7.8 °F 1024.6 in West 24.1 mph 24.1 mph 69 % 0.0 in 445.0 W/m2 CLR
11:08 13.7 °F 8.1 °F 1024.6 in West 27.8 mph 27.8 mph 69 % 0.0 in 601.0 W/m2 CLR
11:13 14.0 °F 8.2 °F 1024.6 in West 22.2 mph 22.2 mph 68 % 0.0 in 686.0 W/m2 CLR
11:18 14.3 °F 8.5 °F 1024.6 in WNW 20.4 mph 20.4 mph 68 % 0.0 in 689.0 W/m2 CLR
11:23 14.4 °F 8.4 °F 1024.6 in NW 20.4 mph 20.4 mph 67 % 0.0 in 643.0 W/m2 CLR
11:28 14.4 °F 8.1 °F 1024.6 in NW 20.4 mph 20.4 mph 66 % 0.0 in 244.0 W/m2 CLR
11:33 14.3 °F 8.0 °F 1024.6 in West 25.9 mph 25.9 mph 66 % 0.0 in 241.0 W/m2 CLR
11:38 14.4 °F 8.3 °F 1024.6 in WSW 27.8 mph 27.8 mph 67 % 0.0 in 724.0 W/m2 CLR
11:43 14.8 °F 8.3 °F 1024.6 in WNW 31.5 mph 31.5 mph 65 % 0.0 in 199.0 W/m2 CLR
11:48 14.5 °F 8.4 °F 1024.6 in WNW 22.2 mph 22.2 mph 67 % 0.0 in 717.0 W/m2 CLR
11:53 14.7 °F 8.4 °F 1024.6 in WNW 24.1 mph 24.1 mph 66 % 0.0 in 221.0 W/m2 CLR
11:58 14.8 °F 8.6 °F 1024.3 in NW 16.7 mph 16.7 mph 66 % 0.0 in 527.0 W/m2 CLR
12:04 15.3 °F 9.2 °F 1024.6 in West 18.5 mph 18.5 mph 67 % 0.0 in 842.0 W/m2 CLR
12:09 15.4 °F 8.4 °F 1024.3 in WNW 24.1 mph 24.1 mph 63 % 0.0 in 1018.0 W/m2 CLR
12:14 15.1 °F 8.6 °F 1024.3 in WNW 16.1 mph 16.1 mph 65 % 0.0 in 269.0 W/m2 CLR
12:19 15.1 °F 8.3 °F 1024.3 in West 16.7 mph 16.7 mph 64 % 0.0 in 452.0 W/m2 CLR
12:24 15.2 °F 8.7 °F 1024.3 in WNW 17.7 mph 18.2 mph 65 % 0.0 in 868.0 W/m2 CLR
12:29 15.9 °F 9.1 °F 1024.3 in WNW 20.4 mph 20.4 mph 64 % 0.0 in 902.0 W/m2 CLR
12:34 16.4 °F 9.3 °F 1023.9 in NW 20.4 mph 20.4 mph 63 % 0.0 in 933.0 W/m2 CLR
12:39 16.7 °F 9.1 °F 1023.9 in WNW 16.7 mph 16.7 mph 61 % 0.0 in 874.0 W/m2 CLR
12:44 16.8 °F 9.0 °F 1023.9 in WNW 18.5 mph 18.5 mph 60 % 0.0 in 795.0 W/m2 CLR
12:49 16.8 °F 8.8 °F 1023.9 in NNW 22.2 mph 22.2 mph 59 % 0.0 in 390.0 W/m2 CLR
12:54 16.4 °F 8.7 °F 1023.9 in WNW 14.8 mph 14.8 mph 60 % 0.0 in 613.0 W/m2 CLR
12:59 16.2 °F 8.4 °F 1023.9 in WNW 22.2 mph 22.2 mph 60 % 0.0 in 376.0 W/m2 CLR
13:04 16.4 °F 8.9 °F 1023.9 in NW 18.5 mph 18.5 mph 61 % 0.0 in 942.0 W/m2 CLR
13:09 16.7 °F 8.4 °F 1023.9 in WNW 18.5 mph 18.5 mph 58 % 0.0 in 517.0 W/m2 CLR
13:14 16.7 °F 8.3 °F 1023.6 in WNW 18.5 mph 18.5 mph 58 % 0.0 in 336.0 W/m2 CLR
13:19 16.5 °F 8.7 °F 1023.6 in West 18.5 mph 18.5 mph 60 % 0.0 in 649.0 W/m2 CLR
13:24 16.7 °F 8.6 °F 1023.6 in WNW 25.9 mph 25.9 mph 59 % 0.0 in 313.0 W/m2 CLR
13:29 16.9 °F 8.6 °F 1023.6 in West 18.5 mph 18.5 mph 58 % 0.0 in 847.0 W/m2 CLR
13:34 17.1 °F 8.7 °F 1023.6 in NNW 22.2 mph 22.2 mph 58 % 0.0 in 731.0 W/m2 CLR
13:39 17.2 °F 8.9 °F 1023.6 in WNW 24.1 mph 24.1 mph 58 % 0.0 in 626.0 W/m2 CLR
13:44 17.2 °F 9.1 °F 1023.2 in NNW 20.9 mph 20.9 mph 59 % 0.0 in 759.0 W/m2 CLR
13:49 17.3 °F 9.2 °F 1023.6 in WNW 18.5 mph 18.5 mph 59 % 0.0 in 766.0 W/m2 CLR
13:54 17.4 °F 8.8 °F 1023.2 in WNW 25.9 mph 25.9 mph 57 % 0.0 in 728.0 W/m2 CLR
13:59 17.4 °F 8.8 °F 1023.2 in NW 20.4 mph 20.4 mph 57 % 0.0 in 756.0 W/m2 CLR
14:04 17.3 °F 8.7 °F 1023.2 in WNW 16.7 mph 16.7 mph 57 % 0.0 in 436.0 W/m2 CLR
14:10 17.1 °F 8.5 °F 1023.2 in WNW 20.4 mph 20.4 mph 57 % 0.0 in 860.0 W/m2 CLR
14:15 17.6 °F 8.7 °F 1023.2 in West 18.5 mph 18.5 mph 56 % 0.0 in 865.0 W/m2 CLR
14:20 17.8 °F 8.3 °F 1022.9 in NW 25.9 mph 25.9 mph 54 % 0.0 in 570.0 W/m2 CLR
14:25 17.6 °F 8.4 °F 1022.9 in NNW 25.9 mph 25.9 mph 55 % 0.0 in 496.0 W/m2 CLR
14:30 17.6 °F 9.0 °F 1022.9 in West 3.7 mph 3.7 mph 57 % 0.0 in 719.0 W/m2 CLR
14:35 18.1 °F 8.9 °F 1022.9 in West 16.7 mph 17.4 mph 55 % 0.0 in 682.0 W/m2 CLR
14:40 18.1 °F 8.9 °F 1022.9 in NW 20.9 mph 22.5 mph 55 % 0.0 in 745.0 W/m2 CLR
14:45 18.1 °F 8.6 °F 1022.6 in NNW 24.1 mph 24.1 mph 54 % 0.0 in 786.0 W/m2 CLR
14:50 18.4 °F 9.2 °F 1022.6 in WNW 18.5 mph 18.5 mph 55 % 0.0 in 884.0 W/m2 CLR
14:55 18.4 °F 9.2 °F 1022.6 in NW 17.7 mph 17.7 mph 55 % 0.0 in 708.0 W/m2 CLR
15:00 18.2 °F 9.0 °F 1022.6 in NW 16.7 mph 16.7 mph 55 % 0.0 in 701.0 W/m2 CLR
15:05 18.3 °F 8.8 °F 1022.6 in WNW 22.2 mph 22.2 mph 54 % 0.0 in 779.0 W/m2 CLR
15:10 18.5 °F 9.3 °F 1022.6 in NW 24.1 mph 24.1 mph 55 % 0.0 in 731.0 W/m2 CLR
15:15 18.3 °F 8.6 °F 1022.6 in NNW 25.9 mph 25.9 mph 53 % 0.0 in 244.0 W/m2 CLR
15:20 18.2 °F 9.0 °F 1022.6 in WNW 22.2 mph 22.2 mph 55 % 0.0 in 793.0 W/m2 CLR
15:25 18.4 °F 8.7 °F 1022.2 in NNW 16.7 mph 16.7 mph 53 % 0.0 in 768.0 W/m2 CLR
15:30 18.6 °F 8.5 °F 1022.2 in NNW 22.2 mph 22.2 mph 52 % 0.0 in 773.0 W/m2 CLR
15:35 18.7 °F 8.3 °F 1022.2 in WNW 5.6 mph 5.6 mph 51 % 0.0 in 786.0 W/m2 CLR
15:40 19.1 °F 8.4 °F 1022.2 in NW 14.5 mph 14.5 mph 50 % 0.0 in 652.0 W/m2 CLR
15:45 19.2 °F 7.9 °F 1022.2 in NNW 29.6 mph 29.6 mph 48 % 0.0 in 613.0 W/m2 CLR
15:50 19.1 °F 7.8 °F 1022.2 in NW 14.8 mph 14.8 mph 48 % 0.0 in 682.0 W/m2 CLR
15:55 19.0 °F 8.1 °F 1021.9 in North 24.1 mph 24.1 mph 49 % 0.0 in 747.0 W/m2 CLR
16:00 19.2 °F 7.9 °F 1021.9 in NW 31.5 mph 31.5 mph 48 % 0.0 in 754.0 W/m2 CLR
16:05 19.3 °F 7.7 °F 1021.9 in WNW 14.8 mph 14.8 mph 47 % 0.0 in 700.0 W/m2 CLR
16:10 19.4 °F 7.8 °F 1021.9 in NW 27.8 mph 27.8 mph 47 % 0.0 in 717.0 W/m2 CLR
16:15 19.3 °F 7.4 °F 1021.9 in WSW 5.6 mph 5.6 mph 46 % 0.0 in 719.0 W/m2 CLR
16:20 19.5 °F 8.2 °F 1021.9 in NW 27.4 mph 27.4 mph 48 % 0.0 in 708.0 W/m2 CLR
16:25 19.4 °F 7.2 °F 1021.6 in NW 7.4 mph 7.4 mph 45 % 0.0 in 694.0 W/m2 CLR
16:30 19.6 °F 8.2 °F 1021.6 in NNW 20.9 mph 20.9 mph 48 % 0.0 in 682.0 W/m2 CLR
16:35 19.8 °F 8.8 °F 1021.6 in NW 16.7 mph 16.7 mph 49 % 0.0 in 670.0 W/m2 CLR
16:40 19.7 °F 7.4 °F 1021.6 in West 16.7 mph 16.7 mph 45 % 0.0 in 615.0 W/m2 CLR
16:45 19.7 °F 7.7 °F 1021.2 in NW 5.6 mph 5.6 mph 46 % 0.0 in 645.0 W/m2 CLR
16:50 19.8 °F 7.2 °F 1021.6 in WNW 14.8 mph 14.8 mph 44 % 0.0 in 633.0 W/m2 CLR
16:55 19.8 °F 7.6 °F 1021.2 in NNW 9.3 mph 9.3 mph 45 % 0.0 in 621.0 W/m2 CLR
17:00 19.9 °F 8.2 °F 1021.2 in NW 17.7 mph 17.7 mph 47 % 0.0 in 606.0 W/m2 CLR
17:05 19.9 °F 6.9 °F 1021.2 in NW 3.7 mph 3.7 mph 43 % 0.0 in 592.0 W/m2 CLR
17:10 20.1 °F 6.8 °F 1021.2 in NNW 25.9 mph 25.9 mph 42 % 0.0 in 575.0 W/m2 CLR
17:15 20.0 °F 6.7 °F 1021.2 in NW 18.5 mph 18.5 mph 42 % 0.0 in 559.0 W/m2 CLR
17:20 19.9 °F 6.3 °F 1021.2 in North 16.1 mph 16.1 mph 41 % 0.0 in 555.0 W/m2 CLR
17:21 19.9 °F 5.9 °F 1021.2 in North 20.9 mph 20.9 mph 40 % 0.0 in 554.0 W/m2 CLR
17:26 20.1 °F 4.5 °F 1021.2 in NW 20.4 mph 20.4 mph 36 % 0.0 in 531.0 W/m2 CLR
17:31 20.1 °F 4.5 °F 1021.2 in NW 13.0 mph 13.0 mph 36 % 0.0 in 519.0 W/m2 CLR
17:36 20.1 °F 3.3 °F 1020.9 in NW 18.5 mph 18.5 mph 33 % 0.0 in 508.0 W/m2 CLR
17:41 20.1 °F 4.2 °F 1020.9 in NW 16.7 mph 16.7 mph 35 % 0.0 in 494.0 W/m2 CLR
17:46 20.3 °F 4.3 °F 1020.9 in NNW 11.1 mph 11.1 mph 35 % 0.0 in 480.0 W/m2 CLR
17:51 20.2 °F 3.8 °F 1020.9 in NNE 18.5 mph 18.5 mph 34 % 0.0 in 459.0 W/m2 CLR
17:56 20.3 °F 4.3 °F 1020.9 in NNW 1.9 mph 1.9 mph 35 % 0.0 in 441.0 W/m2 CLR
18:01 20.5 °F 5.3 °F 1020.9 in WNW 18.5 mph 18.5 mph 37 % 0.0 in 427.0 W/m2 CLR
18:06 20.5 °F 4.9 °F 1020.9 in North 5.6 mph 5.6 mph 36 % 0.0 in 404.0 W/m2 CLR
18:11 20.4 °F 5.6 °F 1020.9 in North 22.2 mph 22.2 mph 38 % 0.0 in 390.0 W/m2 CLR
18:16 20.3 °F 4.3 °F 1020.9 in NNW 18.5 mph 18.5 mph 35 % 0.0 in 376.0 W/m2 CLR
18:21 20.4 °F 5.9 °F 1020.5 in WNW 20.9 mph 20.9 mph 39 % 0.0 in 357.0 W/m2 CLR
18:22 20.4 °F 5.9 °F 1020.5 in WNW 20.4 mph 20.4 mph 39 % 0.0 in 352.0 W/m2 CLR
18:27 20.4 °F 5.6 °F 1020.5 in NW 18.5 mph 18.5 mph 38 % 0.0 in 334.0 W/m2 CLR
18:32 20.4 °F 5.3 °F 1020.5 in NW 14.8 mph 14.8 mph 37 % 0.0 in 316.0 W/m2 CLR
18:37 20.4 °F 4.8 °F 1020.9 in NNW 14.8 mph 14.8 mph 36 % 0.0 in 297.0 W/m2 CLR
18:42 20.2 °F 6.2 °F 1020.9 in WNW 18.5 mph 18.5 mph 40 % 0.0 in 281.0 W/m2 CLR
18:47 20.2 °F 6.1 °F 1020.9 in NW 8.0 mph 9.5 mph 40 % 0.0 in 264.0 W/m2 CLR
18:52 20.2 °F 6.5 °F 1020.9 in NW 18.5 mph 18.5 mph 41 % 0.0 in 244.0 W/m2 CLR
18:57 20.0 °F 6.3 °F 1020.9 in NW 20.4 mph 20.4 mph 41 % 0.0 in 223.0 W/m2 CLR
19:02 19.9 °F 7.0 °F 1020.9 in NW 22.2 mph 22.2 mph 43 % 0.0 in 206.0 W/m2 CLR
19:07 19.7 °F 7.1 °F 1020.9 in NW 20.4 mph 20.4 mph 44 % 0.0 in 188.0 W/m2 CLR
19:12 19.4 °F 6.9 °F 1020.9 in NW 27.8 mph 27.8 mph 44 % 0.0 in 165.0 W/m2 CLR
19:17 19.3 °F 7.1 °F 1020.9 in NW 25.7 mph 25.7 mph 45 % 0.0 in 146.0 W/m2 CLR
19:22 19.1 °F 7.2 °F 1020.9 in NW 33.3 mph 33.3 mph 46 % 0.0 in 130.0 W/m2 CLR
19:27 18.9 °F 7.4 °F 1020.9 in NW 22.2 mph 22.2 mph 47 % 0.0 in 114.0 W/m2 CLR
19:32 18.8 °F 7.3 °F 1020.9 in North 25.9 mph 25.9 mph 47 % 0.0 in 95.0 W/m2 CLR
19:37 18.7 °F 7.5 °F 1021.2 in NNW 22.2 mph 22.2 mph 48 % 0.0 in 79.0 W/m2 FEW
19:42 18.6 °F 7.0 °F 1021.2 in NNW 25.9 mph 25.9 mph 47 % 0.0 in 67.0 W/m2 FEW
19:47 18.4 °F 6.9 °F 1021.2 in NNW 20.9 mph 20.9 mph 47 % 0.0 in 54.0 W/m2 SCT
19:53 18.3 °F 7.1 °F 1021.2 in NW 25.9 mph 25.9 mph 48 % 0.0 in 42.0 W/m2 BKN
19:58 18.1 °F 7.2 °F 1021.2 in NNW 18.5 mph 18.5 mph 49 % 0.0 in 26.0 W/m2 BKN
20:03 17.9 °F 7.0 °F 1021.2 in NW 18.5 mph 18.5 mph 49 % 0.0 in 19.0 W/m2 BKN
20:08 17.7 °F 7.1 °F 1021.2 in NNW 18.5 mph 18.5 mph 50 % 0.0 in 14.0 W/m2 BKN
20:13 17.4 °F 6.8 °F 1021.2 in NW 22.2 mph 22.2 mph 50 % 0.0 in 12.0 W/m2 BKN
20:18 17.2 °F 6.9 °F 1021.2 in NNW 29.6 mph 29.6 mph 51 % 0.0 in 9.0 W/m2 BKN
20:24 16.9 °F 7.0 °F 1021.6 in North 24.1 mph 24.1 mph 52 % 0.0 in 7.0 W/m2 BKN
20:29 16.7 °F 7.1 °F 1021.6 in WNW 16.7 mph 16.7 mph 53 % 0.0 in 5.0 W/m2 OVC
20:39 16.3 °F 6.7 °F 1021.6 in NW 20.4 mph 20.4 mph 53 % 0.0 in 0.0 W/m2 CLR
20:44 16.1 °F 6.5 °F 1021.6 in NW 14.8 mph 14.8 mph 53 % 0.0 in 0.0 W/m2 CLR
20:49 15.9 °F 6.6 °F 1021.6 in NW 12.9 mph 12.9 mph 54 % 0.0 in 0.0 W/m2 CLR
20:54 15.7 °F 6.7 °F 1021.6 in NNW 24.1 mph 24.1 mph 55 % 0.0 in 0.0 W/m2 CLR
20:59 15.7 °F 6.7 °F 1021.6 in WNW 9.3 mph 9.3 mph 55 % 0.0 in 0.0 W/m2 CLR
21:04 15.4 °F 6.4 °F 1021.9 in NW 14.5 mph 14.5 mph 55 % 0.0 in 0.0 W/m2 CLR
21:09 15.3 °F 6.6 °F 1021.9 in NW 14.8 mph 14.8 mph 56 % 0.0 in 0.0 W/m2 CLR
21:14 15.2 °F 6.7 °F 1021.9 in WNW 29.6 mph 29.6 mph 57 % 0.0 in 0.0 W/m2 CLR
21:19 15.1 °F 6.6 °F 1021.9 in NW 18.5 mph 18.5 mph 57 % 0.0 in 0.0 W/m2 CLR
21:24 14.9 °F 6.7 °F 1022.2 in WNW 16.7 mph 16.7 mph 58 % 0.0 in 0.0 W/m2 CLR
21:29 14.8 °F 6.7 °F 1022.2 in WNW 29.6 mph 29.6 mph 58 % 0.0 in 0.0 W/m2 CLR
21:34 14.7 °F 6.6 °F 1022.2 in WNW 24.1 mph 24.1 mph 58 % 0.0 in 0.0 W/m2 CLR
21:39 14.6 °F 6.4 °F 1022.2 in NW 20.4 mph 20.4 mph 58 % 0.0 in 0.0 W/m2 CLR
21:44 14.5 °F 6.3 °F 1022.6 in West 20.4 mph 20.4 mph 58 % 0.0 in 0.0 W/m2 CLR
21:49 14.4 °F 6.5 °F 1022.6 in NW 24.1 mph 24.1 mph 59 % 0.0 in 0.0 W/m2 CLR
21:54 14.3 °F 6.4 °F 1022.6 in WNW 18.5 mph 18.5 mph 59 % 0.0 in 0.0 W/m2 CLR
21:59 14.2 °F 6.3 °F 1022.6 in West 16.7 mph 16.7 mph 59 % 0.0 in 0.0 W/m2 CLR
22:04 14.1 °F 6.2 °F 1022.6 in West 16.1 mph 16.1 mph 59 % 0.0 in 0.0 W/m2 CLR
22:09 14.1 °F 6.2 °F 1022.6 in West 11.1 mph 11.1 mph 59 % 0.0 in 0.0 W/m2 CLR
22:14 13.9 °F 6.0 °F 1022.6 in NW 5.6 mph 5.6 mph 59 % 0.0 in 0.0 W/m2 CLR
22:19 13.8 °F 6.2 °F 1022.9 in West 16.1 mph 16.1 mph 60 % 0.0 in 0.0 W/m2 CLR
22:24 13.7 °F 6.1 °F 1022.9 in West 13.0 mph 13.0 mph 60 % 0.0 in 0.0 W/m2 CLR
22:29 13.6 °F 6.0 °F 1022.9 in West 16.7 mph 16.7 mph 60 % 0.0 in 0.0 W/m2 CLR
22:34 13.5 °F 5.9 °F 1022.9 in WSW 20.4 mph 20.4 mph 60 % 0.0 in 0.0 W/m2 CLR
22:39 13.5 °F 5.9 °F 1022.9 in West 18.5 mph 18.5 mph 60 % 0.0 in 0.0 W/m2 CLR
22:44 13.4 °F 5.8 °F 1022.9 in West 14.8 mph 14.8 mph 60 % 0.0 in 0.0 W/m2 CLR
22:49 13.4 °F 5.8 °F 1022.9 in West 18.5 mph 18.5 mph 60 % 0.0 in 0.0 W/m2 CLR
22:54 13.3 °F 5.9 °F 1022.9 in West 20.4 mph 20.4 mph 61 % 0.0 in 0.0 W/m2 CLR
22:59 13.2 °F 5.8 °F 1022.9 in WSW 20.9 mph 20.9 mph 61 % 0.0 in 0.0 W/m2 CLR
23:04 13.2 °F 5.8 °F 1022.9 in West 14.5 mph 14.5 mph 61 % 0.0 in 0.0 W/m2 CLR
23:09 13.1 °F 5.7 °F 1022.9 in West 16.7 mph 16.7 mph 61 % 0.0 in 0.0 W/m2 CLR
23:14 12.9 °F 5.6 °F 1022.9 in WNW 18.5 mph 18.5 mph 61 % 0.0 in 0.0 W/m2 CLR
23:19 12.9 °F 5.6 °F 1023.2 in West 14.8 mph 14.8 mph 61 % 0.0 in 0.0 W/m2 CLR
23:24 12.9 °F 5.6 °F 1023.2 in SW 11.1 mph 11.1 mph 61 % 0.0 in 0.0 W/m2 CLR
23:29 12.8 °F 5.4 °F 1023.2 in WSW 14.8 mph 14.8 mph 61 % 0.0 in 0.0 W/m2 CLR
23:34 12.6 °F 5.3 °F 1023.2 in WSW 4.8 mph 4.8 mph 61 % 0.0 in 0.0 W/m2 CLR
23:39 12.6 °F 5.3 °F 1023.2 in West 14.8 mph 14.8 mph 61 % 0.0 in 0.0 W/m2 CLR
23:44 12.6 °F 5.3 °F 1023.2 in WNW 12.9 mph 12.9 mph 61 % 0.0 in 0.0 W/m2 CLR
23:49 12.5 °F 5.2 °F 1023.2 in WNW 24.1 mph 24.1 mph 61 % 0.0 in 0.0 W/m2 CLR
23:54 12.5 °F 5.2 °F 1023.2 in WSW 16.7 mph 16.7 mph 61 % 0.0 in 0.0 W/m2 CLR
23:59 12.4 °F 5.1 °F 1023.2 in WSW 18.5 mph 18.5 mph 61 % 0.0 in 0.0 W/m2 CLR
Lo Temps de Massalio
Compliments of Weather Underground - 1.25 mb